Time;durP1;ratioP1;P1;durP2;ratioP2;P2;SDS_P1;SDS_P2;PMS_P1;PMS_P2;Temp;Humidity;BMP_temperature;BMP_pressure;BME280_temperature;BME280_humidity;BME280_pressure;Samples;Min_cycle;Max_cycle;Signal;HPM_P1;HPM_P2
2022/05/06 00:00:31;;;;;;;6.18;3.83;;;;;;;13.62;55.24;100158.25;4993605;28;20030;-82
2022/05/06 00:02:56;;;;;;;9.90;4.38;;;;;;;13.43;56.87;100160.63;4993816;28;20545;-81
2022/05/06 00:05:22;;;;;;;7.03;3.40;;;;;;;13.40;57.42;100164.13;4993686;28;20058;-81
2022/05/06 00:07:48;;;;;;;7.05;3.00;;;;;;;13.56;57.57;100154.00;4976340;28;20472;-81
2022/05/06 00:10:14;;;;;;;4.22;3.00;;;;;;;13.53;57.41;100160.28;4993390;28;20105;-82
2022/05/06 00:12:39;;;;;;;8.00;3.97;;;;;;;13.52;56.34;100158.66;4993653;28;20033;-79
2022/05/06 00:15:07;;;;;;;8.48;4.15;;;;;;;13.55;57.57;100155.16;4993442;28;20034;-82
2022/05/06 00:17:33;;;;;;;5.95;2.90;;;;;;;13.49;57.51;100162.13;4993551;28;20018;-81
2022/05/06 00:19:59;;;;;;;5.97;3.80;;;;;;;13.57;57.08;100155.63;4996366;28;20025;-81
2022/05/06 00:22:24;;;;;;;8.15;4.35;;;;;;;13.67;57.60;100159.22;4981037;28;20042;-82
2022/05/06 00:24:51;;;;;;;5.88;3.70;;;;;;;13.70;57.73;100158.53;4993152;28;20030;-81
2022/05/06 00:27:17;;;;;;;8.25;4.25;;;;;;;13.55;56.90;100179.59;4993315;28;20084;-82
2022/05/06 00:29:43;;;;;;;5.53;4.10;;;;;;;13.27;57.71;100175.25;4993941;28;20025;-81
2022/05/06 00:32:09;;;;;;;7.82;3.80;;;;;;;13.39;57.83;100173.69;4994790;28;20041;-81
2022/05/06 00:34:34;;;;;;;10.18;3.70;;;;;;;13.12;58.00;100178.59;4993394;28;20030;-82
2022/05/06 00:37:00;;;;;;;8.25;4.03;;;;;;;13.38;58.46;100180.47;4993146;28;20412;-82
2022/05/06 00:39:26;;;;;;;5.53;4.20;;;;;;;13.41;57.77;100183.44;4992839;28;20429;-81
2022/05/06 00:41:55;;;;;;;6.15;4.03;;;;;;;13.23;58.63;100174.25;4993230;28;20412;-80
2022/05/06 00:44:22;;;;;;;4.90;3.38;;;;;;;13.26;59.13;100167.97;5011313;28;20444;-81
2022/05/06 00:46:50;;;;;;;5.43;3.42;;;;;;;13.21;59.09;100162.53;5012643;28;20037;-81
2022/05/06 00:49:16;;;;;;;7.18;3.95;;;;;;;13.27;58.62;100174.41;4994797;28;20029;-81
2022/05/06 00:51:42;;;;;;;5.75;4.05;;;;;;;13.21;59.00;100173.78;4977181;28;20034;-81
2022/05/06 00:54:08;;;;;;;8.65;4.00;;;;;;;13.20;58.75;100172.13;4992960;28;20057;-81
2022/05/06 00:56:34;;;;;;;7.07;4.10;;;;;;;13.12;60.01;100172.97;4992303;28;20031;-81
2022/05/06 00:59:00;;;;;;;15.75;4.38;;;;;;;12.99;59.28;100169.22;5007467;28;20628;-80
2022/05/06 01:01:25;;;;;;;6.50;4.28;;;;;;;12.80;60.86;100173.22;5007703;28;20066;-81
2022/05/06 01:03:52;;;;;;;8.20;4.32;;;;;;;12.70;61.73;100170.75;4993563;28;20404;-82
2022/05/06 01:06:18;;;;;;;12.18;3.65;;;;;;;12.79;61.80;100174.38;5011912;28;20042;-81
2022/05/06 01:08:44;;;;;;;9.65;4.60;;;;;;;12.85;62.04;100183.44;5012191;28;20045;-82
2022/05/06 01:11:12;;;;;;;6.10;3.47;;;;;;;12.78;61.46;100181.16;5011099;28;20017;-82
2022/05/06 01:13:43;;;;;;;8.00;4.10;;;;;;;12.64;61.97;100182.16;5012277;28;20033;-82
2022/05/06 01:16:09;;;;;;;8.52;4.53;;;;;;;12.68;61.38;100176.72;4989732;28;20049;-82
2022/05/06 01:18:35;;;;;;;13.55;4.53;;;;;;;12.62;61.91;100180.84;4992443;28;20105;-81
2022/05/06 01:21:03;;;;;;;8.43;4.25;;;;;;;12.81;61.93;100188.09;5009024;28;20126;-82
2022/05/06 01:23:28;;;;;;;8.63;4.43;;;;;;;12.83;61.68;100182.97;5011911;28;20041;-81
2022/05/06 01:25:54;;;;;;;6.68;4.35;;;;;;;12.83;62.33;100177.34;5016103;28;20447;-81
2022/05/06 01:28:23;;;;;;;5.13;3.97;;;;;;;12.73;61.54;100172.88;5031572;28;20044;-81
2022/05/06 01:30:52;;;;;;;12.35;4.60;;;;;;;12.68;62.84;100176.72;4999873;28;20029;-82
2022/05/06 01:33:21;;;;;;;6.78;4.68;;;;;;;12.58;62.20;100177.06;4974768;28;20543;-82
2022/05/06 01:35:51;;;;;;;8.48;4.30;;;;;;;12.60;62.53;100177.53;4975759;28;20030;-82
2022/05/06 01:38:23;;;;;;;7.55;4.18;;;;;;;12.72;62.85;100174.88;5010805;28;20563;-80
2022/05/06 01:40:52;;;;;;;11.43;5.47;;;;;;;12.75;62.32;100170.59;4995238;28;20050;-81
2022/05/06 01:43:21;;;;;;;10.10;5.50;;;;;;;12.83;62.01;100175.34;4974606;28;20038;-79
2022/05/06 01:45:48;;;;;;;6.93;4.20;;;;;;;12.65;61.58;100166.13;5007078;28;20459;-80
2022/05/06 01:48:16;;;;;;;10.05;4.35;;;;;;;12.75;61.95;100176.22;4992096;28;20038;-81
2022/05/06 01:50:45;;;;;;;12.52;4.22;;;;;;;12.68;62.35;100164.66;4996507;28;20023;-81
2022/05/06 01:53:14;;;;;;;9.88;4.93;;;;;;;12.71;62.00;100169.59;4991275;28;20420;-82
2022/05/06 01:55:40;;;;;;;10.98;4.85;;;;;;;12.77;61.65;100179.50;4974506;28;20441;-82
2022/05/06 01:58:06;;;;;;;12.77;5.47;;;;;;;12.68;61.78;100165.50;4992056;28;20111;-82
2022/05/06 02:00:31;;;;;;;9.43;5.35;;;;;;;12.22;62.19;100162.19;5003320;28;20034;-82
2022/05/06 02:02:57;;;;;;;11.05;5.70;;;;;;;11.82;63.01;100167.91;5011576;28;20069;-82
2022/05/06 02:05:23;;;;;;;7.65;5.18;;;;;;;11.72;63.75;100164.25;4991256;28;20489;-81
2022/05/06 02:07:50;;;;;;;6.45;4.88;;;;;;;12.26;63.07;100176.38;4991197;28;20079;-81
2022/05/06 02:10:17;;;;;;;11.52;5.72;;;;;;;12.56;62.46;100173.75;4980257;28;20022;-81
2022/05/06 02:12:46;;;;;;;9.50;5.10;;;;;;;12.61;61.93;100174.41;4991820;28;20421;-81
2022/05/06 02:15:16;;;;;;;9.00;6.72;;;;;;;12.47;62.59;100183.00;4985476;28;20500;-80
2022/05/06 02:17:42;;;;;;;11.32;6.53;;;;;;;12.04;64.62;100186.59;4992001;28;20040;-80
2022/05/06 02:20:10;;;;;;;11.23;6.03;;;;;;;11.75;66.06;100185.19;5011582;28;20042;-81
2022/05/06 02:22:37;;;;;;;9.70;5.60;;;;;;;11.34;67.38;100188.03;5000911;28;20168;-82
2022/05/06 02:25:05;;;;;;;10.75;6.00;;;;;;;11.15;69.13;100184.63;4997554;28;20038;-81
2022/05/06 02:27:32;;;;;;;18.73;5.90;;;;;;;10.63;70.34;100186.78;5015057;28;20033;-81
2022/05/06 02:35:27;;;;;;;9.48;7.78;;;;;;;10.71;71.12;100182.38;5015284;28;20095;-82
2022/05/06 02:37:52;;;;;;;14.45;8.32;;;;;;;10.71;71.53;100176.78;5004516;28;20061;-81
2022/05/06 02:40:18;;;;;;;14.32;7.53;;;;;;;10.97;70.81;100183.72;5013615;28;20034;-82
2022/05/06 02:42:43;;;;;;;14.15;8.00;;;;;;;11.41;69.83;100175.50;5033949;28;20026;-80
2022/05/06 02:45:10;;;;;;;15.73;10.45;;;;;;;11.47;69.05;100185.44;5014567;28;20057;-82
2022/05/06 02:47:36;;;;;;;19.80;9.52;;;;;;;11.52;68.05;100185.28;5009022;28;20041;-81
2022/05/06 02:50:02;;;;;;;25.27;9.88;;;;;;;11.53;68.34;100195.34;5006688;28;20106;-82
2022/05/06 02:52:28;;;;;;;13.80;8.80;;;;;;;11.58;68.17;100191.56;5014578;28;20060;-82
2022/05/06 02:54:54;;;;;;;11.88;7.18;;;;;;;11.76;67.62;100184.03;4996983;28;20026;-81
2022/05/06 02:57:19;;;;;;;8.88;6.75;;;;;;;11.84;67.19;100190.81;4995549;28;20073;-80
2022/05/06 02:59:45;;;;;;;14.18;7.13;;;;;;;11.91;66.56;100194.78;5013450;28;20377;-79
2022/05/06 03:02:10;;;;;;;12.52;8.23;;;;;;;11.89;66.83;100197.09;4982185;28;20037;-81
2022/05/06 03:04:36;;;;;;;12.15;7.20;;;;;;;11.86;66.68;100194.94;4994843;28;20033;-81
2022/05/06 03:07:06;;;;;;;12.75;7.40;;;;;;;11.72;66.61;100188.66;4993568;28;20113;-81
2022/05/06 03:09:33;;;;;;;11.27;7.70;;;;;;;11.82;66.50;100191.13;4995258;28;20531;-81
2022/05/06 03:11:58;;;;;;;15.13;8.10;;;;;;;11.58;67.21;100197.97;4994737;28;20034;-82
2022/05/06 03:14:24;;;;;;;11.25;8.25;;;;;;;11.80;67.52;100193.44;4994746;28;20033;-82
2022/05/06 03:16:50;;;;;;;16.80;9.57;;;;;;;11.67;66.80;100192.44;5007073;28;20026;-82
2022/05/06 03:19:15;;;;;;;11.45;8.75;;;;;;;11.61;67.33;100199.31;5004235;28;20030;-81
2022/05/06 03:21:41;;;;;;;18.13;9.40;;;;;;;10.94;69.70;100196.34;4994603;28;20157;-81
2022/05/06 03:24:07;;;;;;;21.60;11.35;;;;;;;10.94;70.01;100197.19;5002589;28;20030;-81
2022/05/06 03:26:33;;;;;;;32.03;12.63;;;;;;;11.18;69.86;100197.97;5010610;28;20026;-79
2022/05/06 03:28:59;;;;;;;11.93;8.82;;;;;;;11.14;69.61;100199.78;4994973;28;20551;-81
2022/05/06 03:31:27;;;;;;;18.42;10.48;;;;;;;11.34;69.10;100209.59;4996227;28;20040;-81
2022/05/06 03:33:54;;;;;;;21.67;15.57;;;;;;;10.94;70.82;100210.34;4997570;28;20026;-80
2022/05/06 03:36:21;;;;;;;36.03;22.52;;;;;;;10.67;72.50;100212.16;4994083;28;20452;-82
2022/05/06 03:38:46;;;;;;;30.73;20.67;;;;;;;10.81;72.25;100220.50;4993977;28;20038;-82
2022/05/06 03:41:11;;;;;;;20.92;14.80;;;;;;;10.97;72.20;100218.09;4976599;28;20420;-81
2022/05/06 03:43:37;;;;;;;33.45;14.00;;;;;;;11.19;71.29;100219.22;4994491;28;20035;-81
2022/05/06 03:46:02;;;;;;;23.15;15.68;;;;;;;11.34;70.90;100224.44;4996068;28;20210;-82
2022/05/06 03:48:28;;;;;;;20.13;13.68;;;;;;;11.37;70.05;100226.59;5001833;28;20456;-82
2022/05/06 03:53:38;;;;;;;17.42;13.35;;;;;;;11.42;70.15;100230.38;4994250;28;20520;-81
2022/05/06 03:56:04;;;;;;;20.33;15.30;;;;;;;11.34;70.87;100237.59;5008249;28;20030;-82
2022/05/06 03:58:31;;;;;;;17.88;13.73;;;;;;;10.82;72.58;100239.75;4994020;28;20037;-81
2022/05/06 04:00:57;;;;;;;17.65;12.45;;;;;;;10.90;73.20;100245.72;5002603;28;20076;-82
2022/05/06 04:03:22;;;;;;;22.73;14.68;;;;;;;10.77;73.71;100237.09;5001818;28;20025;-82
2022/05/06 04:05:48;;;;;;;16.50;13.48;;;;;;;10.99;73.30;100243.00;5008451;28;20104;-82
2022/05/06 04:08:14;;;;;;;16.52;11.32;;;;;;;10.90;73.80;100235.34;4986685;28;20017;-81
2022/05/06 04:10:40;;;;;;;16.27;11.98;;;;;;;10.82;74.46;100250.13;5005737;28;20029;-82
2022/05/06 04:13:05;;;;;;;29.17;13.60;;;;;;;10.97;74.30;100225.69;4995937;28;20062;-81
2022/05/06 04:15:32;;;;;;;22.17;14.73;;;;;;;11.06;73.88;100244.19;5000108;28;20401;-80
2022/05/06 04:17:59;;;;;;;36.05;24.90;;;;;;;10.56;75.66;100235.91;4993997;28;20034;-72
2022/05/06 04:25:52;;;;;;;36.95;24.20;;;;;;;10.73;76.70;100252.84;5013414;28;20451;-80
2022/05/06 04:28:18;;;;;;;17.85;14.23;;;;;;;10.74;76.57;100236.88;5013832;28;20037;-84
2022/05/06 04:30:43;;;;;;;19.67;11.60;;;;;;;10.56;76.44;100239.56;4995285;28;20635;-82
2022/05/06 04:33:09;;;;;;;14.48;11.95;;;;;;;10.60;76.98;100242.53;5005045;28;20033;-79
2022/05/06 04:35:34;;;;;;;22.52;13.43;;;;;;;10.52;77.78;100235.72;5005463;28;20034;-74
2022/05/06 04:38:00;;;;;;;27.13;14.45;;;;;;;10.50;78.33;100240.81;5008894;28;20434;-74
2022/05/06 04:40:26;;;;;;;42.22;23.70;;;;;;;10.39;78.17;100226.22;5012622;28;20385;-75
2022/05/06 04:42:51;;;;;;;105.28;58.83;;;;;;;10.59;78.59;100254.88;4993947;28;20033;-74
2022/05/06 04:45:17;;;;;;;38.55;26.83;;;;;;;10.43;78.45;100252.44;5011294;28;20022;-79
2022/05/06 04:47:42;;;;;;;26.77;15.52;;;;;;;10.58;79.18;100251.25;4994463;28;20042;-76
2022/05/06 04:50:08;;;;;;;17.88;13.57;;;;;;;10.65;78.89;100256.41;5012499;28;20504;-75
2022/05/06 04:52:34;;;;;;;23.20;14.15;;;;;;;10.93;77.90;100256.28;4993872;28;20420;-76
2022/05/06 04:54:59;;;;;;;21.65;14.05;;;;;;;11.00;78.13;100251.09;5005401;28;20038;-75
2022/05/06 04:57:25;;;;;;;21.83;13.25;;;;;;;11.04;78.73;100257.69;4987430;28;20477;-77
2022/05/06 04:59:50;;;;;;;18.42;14.07;;;;;;;11.14;77.79;100250.19;4983704;28;20072;-76
2022/05/06 05:02:16;;;;;;;31.15;14.20;;;;;;;11.21;76.80;100251.38;5005894;28;20029;-76
2022/05/06 05:04:43;;;;;;;20.10;13.15;;;;;;;11.41;76.55;100259.53;4996638;28;20034;-76
2022/05/06 05:07:09;;;;;;;20.40;14.13;;;;;;;11.48;75.83;100259.94;4993033;28;20504;-78
2022/05/06 05:09:35;;;;;;;28.77;16.60;;;;;;;11.60;75.43;100268.56;5004638;28;20034;-75
2022/05/06 05:12:00;;;;;;;27.63;18.35;;;;;;;11.89;74.28;100266.38;5012258;28;20026;-77
2022/05/06 05:14:25;;;;;;;29.48;18.10;;;;;;;11.75;74.99;100277.69;5011945;28;20025;-76
2022/05/06 05:16:51;;;;;;;95.60;81.32;;;;;;;11.84;74.70;100272.09;4998228;28;20172;-79
2022/05/06 05:19:17;;;;;;;33.22;21.85;;;;;;;11.61;75.70;100264.59;4992500;28;20031;-82
2022/05/06 05:21:43;;;;;;;28.13;17.20;;;;;;;11.51;76.55;100273.28;4992633;28;20513;-79
2022/05/06 05:24:08;;;;;;;31.38;18.27;;;;;;;11.71;76.16;100266.28;4974916;28;20034;-83
2022/05/06 05:26:34;;;;;;;26.65;17.35;;;;;;;11.75;77.19;100263.66;5000005;28;20040;-80
2022/05/06 05:29:00;;;;;;;29.55;20.30;;;;;;;11.82;76.48;100252.78;5011561;28;20033;-75
2022/05/06 05:31:26;;;;;;;28.25;18.73;;;;;;;12.02;75.60;100267.41;5012556;28;20114;-76
2022/05/06 05:33:54;;;;;;;23.80;16.70;;;;;;;11.65;76.36;100261.97;4991111;28;20560;-80
2022/05/06 05:36:20;;;;;;;21.08;16.52;;;;;;;11.59;77.46;100272.50;4999187;28;20037;-76
2022/05/06 05:38:45;;;;;;;20.55;14.77;;;;;;;11.75;75.90;100274.88;5011603;28;20053;-80
2022/05/06 05:41:11;;;;;;;26.98;15.82;;;;;;;11.77;74.74;100269.75;5006785;28;20026;-82
2022/05/06 05:49:05;;;;;;;19.13;14.50;;;;;;;11.77;75.53;100272.56;5002211;28;20074;-82
2022/05/06 05:51:33;;;;;;;23.02;14.55;;;;;;;11.97;73.97;100264.72;4980221;28;20022;-81
2022/05/06 05:53:59;;;;;;;28.75;20.00;;;;;;;11.98;75.05;100272.81;5011935;28;20033;-80
2022/05/06 05:56:24;;;;;;;36.28;23.15;;;;;;;11.86;73.71;100275.41;4997419;28;20034;-80
2022/05/06 05:58:51;;;;;;;27.08;18.60;;;;;;;12.10;74.30;100268.56;4990484;28;20023;-79
2022/05/06 06:01:17;;;;;;;37.42;15.18;;;;;;;12.10;71.52;100272.22;5004326;28;20129;-80
2022/05/06 06:03:43;;;;;;;22.70;15.50;;;;;;;12.12;70.93;100277.47;5005259;28;20472;-76
2022/05/06 06:06:08;;;;;;;21.63;16.40;;;;;;;12.02;70.84;100273.00;5001841;28;20034;-79
2022/05/06 06:08:34;;;;;;;29.17;17.60;;;;;;;12.09;72.24;100267.75;5013028;28;20029;-77
2022/05/06 06:11:01;;;;;;;25.40;16.75;;;;;;;12.35;72.15;100262.19;4982953;28;20042;-79
2022/05/06 06:13:28;;;;;;;23.17;17.77;;;;;;;12.41;70.38;100268.47;4997816;28;20477;-77
2022/05/06 06:15:53;;;;;;;21.75;16.27;;;;;;;12.50;70.79;100266.50;4983944;28;20031;-79
2022/05/06 06:18:24;;;;;;;23.17;17.05;;;;;;;12.45;69.71;100274.25;5006079;28;20060;-79
2022/05/06 06:20:49;;;;;;;;;;;;;;;12.55;70.47;100273.09;5015876;28;20480;-78
2022/05/06 06:23:15;;;;;;;29.05;16.55;;;;;;;12.69;70.66;100272.97;5009344;28;19917;-79
2022/05/06 06:25:40;;;;;;;24.90;16.60;;;;;;;12.81;69.53;100270.31;5014961;28;20028;-82
2022/05/06 06:28:06;;;;;;;27.45;17.52;;;;;;;13.08;68.39;100271.09;5015043;28;20026;-83
2022/05/06 06:30:32;;;;;;;26.08;15.10;;;;;;;12.99;67.22;100261.91;5008089;28;20051;-80
2022/05/06 06:32:58;;;;;;;21.45;13.68;;;;;;;12.90;67.05;100267.50;4997994;28;20030;-78
2022/05/06 06:35:24;;;;;;;18.60;12.85;;;;;;;12.98;65.74;100258.25;4994091;28;20022;-79
2022/05/06 06:37:49;;;;;;;16.10;12.93;;;;;;;12.95;64.81;100261.72;4994608;28;20417;-79
2022/05/06 06:40:15;;;;;;;17.80;12.88;;;;;;;13.18;64.59;100250.28;4995369;28;20026;-76
2022/05/06 06:42:42;;;;;;;17.80;14.38;;;;;;;13.44;64.56;100253.03;5000431;28;20548;-77
2022/05/06 06:45:09;;;;;;;31.77;18.15;;;;;;;13.28;64.45;100249.94;5003620;28;20055;-76
2022/05/06 06:47:35;;;;;;;18.92;14.00;;;;;;;13.36;65.84;100255.84;4998199;28;20459;-78
2022/05/06 06:50:02;;;;;;;13.95;11.32;;;;;;;13.58;64.36;100260.47;5013997;28;20045;-77
2022/05/06 06:52:27;;;;;;;18.10;10.48;;;;;;;13.67;60.85;100254.81;4995547;28;20037;-75
2022/05/06 06:54:53;;;;;;;20.02;10.27;;;;;;;13.70;60.17;100256.94;4993888;28;20460;-81
2022/05/06 06:57:18;;;;;;;25.52;12.90;;;;;;;13.68;61.95;100248.81;4997826;28;20045;-79
2022/05/06 06:59:44;;;;;;;23.55;9.63;;;;;;;13.80;59.79;100250.94;4995168;28;20457;-78
2022/05/06 07:02:09;;;;;;;13.57;10.15;;;;;;;13.79;59.11;100251.25;4995420;28;20033;-76
2022/05/06 07:04:35;;;;;;;15.95;10.15;;;;;;;13.92;58.50;100249.41;4980643;28;20061;-76
2022/05/06 07:12:30;;;;;;;12.93;9.82;;;;;;;14.12;57.62;100242.16;4994812;28;20179;-81
2022/05/06 07:14:55;;;;;;;13.35;8.02;;;;;;;13.86;57.81;100251.56;4977400;28;20124;-86
2022/05/06 07:17:21;;;;;;;17.90;9.30;;;;;;;13.94;58.76;100253.53;4994252;28;20030;-82
2022/05/06 07:19:47;;;;;;;13.00;10.32;;;;;;;14.09;59.60;100259.72;4983460;28;20066;-77
2022/05/06 07:22:13;;;;;;;14.48;10.68;;;;;;;14.06;58.99;100249.13;5015180;28;20092;-76
2022/05/06 07:24:38;;;;;;;12.77;10.02;;;;;;;14.25;59.14;100245.91;5012677;28;20512;-79
2022/05/06 07:27:04;;;;;;;13.32;9.35;;;;;;;14.43;59.01;100255.84;4997724;28;20094;-78
2022/05/06 07:29:31;;;;;;;20.58;10.38;;;;;;;14.36;57.61;100247.16;5005910;28;20389;-77
2022/05/06 07:31:57;;;;;;;13.43;9.13;;;;;;;14.39;56.87;100252.09;5002268;28;20091;-81
2022/05/06 07:34:22;;;;;;;13.52;8.65;;;;;;;14.71;58.33;100246.84;5008736;28;20027;-86
2022/05/06 07:36:48;;;;;;;25.27;9.02;;;;;;;14.85;56.40;100238.16;4989213;28;20475;-76
2022/05/06 07:39:15;;;;;;;15.90;9.43;;;;;;;14.86;55.83;100242.63;5001153;28;20052;-81
2022/05/06 07:41:41;;;;;;;17.50;9.57;;;;;;;15.04;56.48;100248.09;5004018;28;20032;-76
2022/05/06 07:44:07;;;;;;;22.90;9.95;;;;;;;15.40;55.93;100242.91;4990255;28;20180;-78
2022/05/06 07:46:34;;;;;;;14.77;9.25;;;;;;;15.55;52.96;100247.84;4996800;28;20417;-79
2022/05/06 07:49:00;;;;;;;44.20;25.70;;;;;;;15.70;54.51;100242.72;4998632;28;20026;-76
2022/05/06 07:51:26;;;;;;;18.83;9.70;;;;;;;16.10;52.78;100253.31;4999459;28;20084;-79
2022/05/06 07:53:52;;;;;;;14.63;10.73;;;;;;;16.11;52.89;100252.16;4996233;28;20485;-77
2022/05/06 07:56:20;;;;;;;20.20;11.07;;;;;;;16.34;53.37;100248.84;4980457;28;20038;-73
2022/05/06 07:58:45;;;;;;;416.27;176.85;;;;;;;16.39;52.44;100242.94;4985965;28;20034;-75
2022/05/06 08:01:12;;;;;;;115.80;45.97;;;;;;;16.34;53.44;100254.47;4994269;28;20026;-74
2022/05/06 08:06:22;;;;;;;1999.90;999.90;;;;;;;16.70;54.63;100240.63;5011082;28;20404;-76
2022/05/06 08:08:47;;;;;;;1999.90;999.90;;;;;;;16.82;52.21;100253.88;4995011;28;20034;-78
2022/05/06 08:11:13;;;;;;;1999.90;999.90;;;;;;;16.73;53.88;100253.22;5012089;28;20030;-83
2022/05/06 08:13:39;;;;;;;414.60;246.40;;;;;;;17.22;50.01;100244.53;5008183;28;20061;-74
2022/05/06 08:16:04;;;;;;;1999.90;903.15;;;;;;;17.29;49.25;100241.09;4993668;28;20465;-75
2022/05/06 08:18:30;;;;;;;1836.70;715.33;;;;;;;17.77;51.32;100243.97;4992580;28;20087;-75
2022/05/06 08:20:56;;;;;;;270.23;131.90;;;;;;;17.66;49.35;100237.22;5013638;28;20061;-73
2022/05/06 08:23:22;;;;;;;1803.13;742.10;;;;;;;17.53;49.46;100242.13;4991637;28;20026;-80
2022/05/06 08:25:52;;;;;;;47.90;28.70;;;;;;;17.29;49.99;100238.25;4984634;28;20465;-77
2022/05/06 08:28:19;;;;;;;14.17;9.53;;;;;;;17.37;49.90;100234.44;5013356;28;20022;-77
2022/05/06 08:30:47;;;;;;;10.38;9.27;;;;;;;17.09;49.13;100249.47;4987591;28;20449;-80
2022/05/06 08:33:13;;;;;;;19.65;10.15;;;;;;;17.04;50.55;100248.88;4991611;28;20412;-75
2022/05/06 08:35:39;;;;;;;14.20;10.02;;;;;;;17.28;51.52;100242.28;4993320;28;20128;-75
2022/05/06 08:38:05;;;;;;;15.50;8.65;;;;;;;17.59;50.92;100234.19;4995829;28;20550;-76
2022/05/06 08:40:35;;;;;;;10.75;8.18;;;;;;;17.71;49.71;100238.94;4997125;28;20052;-73
2022/05/06 08:43:03;;;;;;;11.00;8.32;;;;;;;17.52;49.93;100229.16;5010809;28;20025;-80
2022/05/06 08:51:02;;;;;;;18.35;8.77;;;;;;;16.88;51.02;100235.47;5012689;28;20404;-74
2022/05/06 08:53:34;;;;;;;10.30;8.43;;;;;;;16.89;50.92;100241.97;4997280;28;20042;-73
2022/05/06 08:56:02;;;;;;;16.55;8.38;;;;;;;17.38;51.57;100236.09;4986654;28;20041;-84
2022/05/06 08:58:34;;;;;;;17.05;8.48;;;;;;;17.43;50.81;100231.34;4982514;28;20056;-72
2022/05/06 09:01:07;;;;;;;10.75;8.20;;;;;;;17.79;51.20;100237.91;4987592;28;20034;-75
2022/05/06 09:03:37;;;;;;;12.57;7.53;;;;;;;17.85;50.95;100229.97;5001832;28;20032;-75
2022/05/06 09:06:03;;;;;;;7.75;7.00;;;;;;;17.91;51.19;100225.69;5006935;28;20033;-78
2022/05/06 09:08:36;;;;;;;15.55;8.10;;;;;;;17.89;50.76;100219.59;5010901;28;20050;-78
2022/05/06 09:11:09;;;;;;;14.15;8.18;;;;;;;17.97;49.77;100215.72;4983244;28;20030;-76
2022/05/06 09:13:58;;;;;;;27.80;9.27;;;;;;;17.81;50.06;100222.22;5004651;28;20041;-77
2022/05/06 09:16:39;;;;;;;21.05;9.05;;;;;;;17.66;50.19;100212.56;5008489;28;20025;-77
2022/05/06 09:19:14;;;;;;;15.95;8.55;;;;;;;18.02;50.51;100206.97;5011414;28;20049;-74
2022/05/06 09:21:41;;;;;;;12.93;8.15;;;;;;;18.13;48.72;100206.44;4994193;28;20116;-74
2022/05/06 09:24:20;;;;;;;16.95;8.07;;;;;;;17.89;50.31;100202.63;5006465;28;20105;-72
2022/05/06 09:27:09;;;;;;;10.32;8.35;;;;;;;18.25;49.71;100206.31;5007074;28;20084;-73
2022/05/06 09:29:38;;;;;;;12.73;8.50;;;;;;;18.07;48.01;100197.41;4996935;28;20021;-75
2022/05/06 09:32:20;;;;;;;14.40;8.68;;;;;;;17.82;51.88;100197.59;4996526;28;20393;-75
2022/05/06 09:34:51;;;;;;;13.02;9.18;;;;;;;18.15;50.55;100192.72;5002308;28;20447;-73
2022/05/06 09:37:32;;;;;;;18.23;9.07;;;;;;;18.18;48.53;100187.16;4984259;28;20026;-73
2022/05/06 09:40:04;;;;;;;11.32;8.30;;;;;;;18.08;48.16;100193.38;4977360;28;20027;-76
2022/05/06 09:42:30;;;;;;;10.60;8.55;;;;;;;18.48;50.49;100189.41;5025543;28;20047;-73
2022/05/06 09:44:56;;;;;;;14.13;8.68;;;;;;;18.60;48.96;100179.13;4986259;28;20466;-75
2022/05/06 09:47:24;;;;;;;13.15;8.25;;;;;;;18.80;49.77;100183.59;5011375;28;20101;-76
2022/05/06 09:49:50;;;;;;;11.65;8.57;;;;;;;18.64;47.24;100178.00;5011288;28;20029;-78
2022/05/06 09:52:16;;;;;;;10.95;8.40;;;;;;;18.40;48.49;100184.78;5011628;28;20412;-79
2022/05/06 09:54:43;;;;;;;9.88;8.23;;;;;;;18.48;48.91;100180.91;5011894;28;20030;-80
2022/05/06 09:57:13;;;;;;;13.70;9.18;;;;;;;18.97;47.52;100186.34;5011316;28;20049;-83
2022/05/06 09:59:39;;;;;;;;;;;;;;;19.04;48.16;100184.50;4993680;28;20041;-80
2022/05/06 10:02:05;;;;;;;14.00;8.10;;;;;;;19.17;48.40;100184.31;5011508;28;19909;-78
2022/05/06 10:04:31;;;;;;;10.32;7.80;;;;;;;19.28;47.54;100171.16;5012294;28;20129;-79
2022/05/06 10:07:01;;;;;;;11.07;8.15;;;;;;;19.44;47.46;100176.72;5011314;28;20033;-77
2022/05/06 10:09:28;;;;;;;;;;;;;;;19.43;46.98;100172.22;5011574;28;20029;-81
2022/05/06 10:11:58;;;;;;;16.23;8.27;;;;;;;19.34;46.16;100163.16;4991778;28;20021;-79
2022/05/06 10:14:25;;;;;;;11.05;8.43;;;;;;;19.24;47.35;100158.09;4991763;28;20026;-79
2022/05/06 10:16:50;;;;;;;13.15;8.63;;;;;;;19.53;46.11;100161.44;4993893;28;20045;-80
2022/05/06 10:19:45;;;;;;;12.07;8.23;;;;;;;19.52;46.18;100152.13;5010155;28;20022;-83
2022/05/06 10:22:11;;;;;;;13.57;9.23;;;;;;;18.94;46.64;100146.22;5011682;28;20074;-77
2022/05/06 10:24:49;;;;;;;15.85;8.95;;;;;;;18.89;47.75;100146.50;5008681;28;20109;-76
2022/05/06 10:33:15;;;;;;;10.93;7.82;;;;;;;19.80;45.64;100133.09;5010648;28;20044;-82
2022/05/06 10:35:45;;;;;;;9.90;7.57;;;;;;;19.85;45.50;100122.22;4988091;28;20025;-80
2022/05/06 10:38:21;;;;;;;10.25;7.80;;;;;;;19.98;45.32;100117.16;5012447;28;20056;-79
2022/05/06 10:40:54;;;;;;;11.18;7.18;;;;;;;20.04;44.30;100135.50;5015489;28;20038;-79
2022/05/06 10:43:41;;;;;;;9.65;8.05;;;;;;;20.17;46.11;100121.06;5013391;28;20128;-79
2022/05/06 10:46:09;;;;;;;11.15;8.32;;;;;;;19.99;44.08;100115.94;5015228;28;20485;-79
2022/05/06 10:48:35;;;;;;;15.27;9.20;;;;;;;20.10;46.24;100116.13;5014697;28;20025;-72
2022/05/06 10:51:27;;;;;;;10.52;7.63;;;;;;;20.48;44.95;100113.34;5001584;28;20517;-73
2022/05/06 10:53:54;;;;;;;11.48;7.28;;;;;;;20.16;43.78;100113.75;4982515;28;20030;-74
2022/05/06 10:56:19;;;;;;;10.93;7.03;;;;;;;20.15;45.48;100106.41;4997096;28;20025;-70
2022/05/06 10:58:45;;;;;;;10.45;7.35;;;;;;;20.42;44.44;100109.22;5005332;28;20090;-72
2022/05/06 11:01:24;;;;;;;10.88;7.28;;;;;;;20.57;43.82;100102.47;4991116;28;20086;-75
2022/05/06 11:03:51;;;;;;;9.88;8.07;;;;;;;20.50;43.33;100093.88;4996508;28;20484;-74
2022/05/06 11:06:24;;;;;;;18.67;7.25;;;;;;;20.78;42.57;100086.88;4992561;28;20056;-74
2022/05/06 11:08:50;;;;;;;8.75;7.45;;;;;;;20.75;42.01;100082.78;4995906;28;20397;-75
2022/05/06 11:11:19;;;;;;;13.40;7.65;;;;;;;20.90;42.32;100083.78;5008769;28;20022;-76
2022/05/06 11:13:47;;;;;;;10.23;7.05;;;;;;;20.95;40.88;100082.63;4991037;28;20477;-76
2022/05/06 11:16:14;;;;;;;17.35;8.73;;;;;;;20.77;41.69;100077.53;5014114;28;20038;-72
2022/05/06 11:18:48;;;;;;;13.07;7.53;;;;;;;20.54;42.34;100072.00;4996007;28;20064;-72
2022/05/06 11:21:24;;;;;;;10.57;7.55;;;;;;;20.39;41.09;100064.50;5013993;28;20029;-76
2022/05/06 11:23:50;;;;;;;11.38;7.43;;;;;;;20.36;40.27;100070.97;5013976;28;20026;-76
2022/05/06 11:26:26;;;;;;;12.25;7.57;;;;;;;20.46;40.77;100065.44;4996007;28;20025;-76
2022/05/06 11:29:05;;;;;;;14.73;7.85;;;;;;;20.59;41.72;100065.97;5002417;28;20474;-75
2022/05/06 11:31:31;;;;;;;10.10;7.63;;;;;;;20.72;41.39;100052.31;4998094;28;20030;-76
2022/05/06 11:34:01;;;;;;;10.95;6.10;;;;;;;21.03;40.47;100060.75;5013979;28;20034;-76
2022/05/06 11:36:27;;;;;;;8.35;5.47;;;;;;;21.18;38.45;100058.84;4995424;28;20116;-76
2022/05/06 11:38:52;;;;;;;8.05;5.70;;;;;;;21.39;37.66;100046.81;4987454;28;20134;-78
2022/05/06 11:41:18;;;;;;;6.45;5.22;;;;;;;21.29;38.08;100042.66;5012560;28;20489;-78
2022/05/06 11:43:45;;;;;;;6.93;5.65;;;;;;;21.40;39.44;100042.75;5012516;28;20505;-78
2022/05/06 11:49:06;;;;;;;11.27;4.57;;;;;;;21.41;36.14;100046.41;4993071;28;20773;-80
2022/05/06 11:51:38;;;;;;;13.45;4.25;;;;;;;21.46;35.50;100051.75;4980411;28;20392;-80
2022/05/06 11:54:06;;;;;;;6.55;4.07;;;;;;;21.71;34.57;100034.84;4995632;28;20087;-80
2022/05/06 11:56:33;;;;;;;6.57;3.90;;;;;;;21.76;34.70;100027.16;5013116;28;20110;-81
2022/05/06 11:59:00;;;;;;;5.15;3.75;;;;;;;21.80;32.60;100022.28;4995492;28;20070;-78